Auburn, Washington
Current Conditions -  °F | °C
As of 11:53 PM on Friday 24 Oct 2014 (Local Time) from KSEA Reporting Station
Overcast Overcast  
Wind Chill: 52°   Ceiling: 6000
Heat Index: 52°   Visibility: 10mi
Dew Point: 48°   Wind: 8mph
Humidity: 86%   Direction: 10°N
Pressure: 29.74"   Gusts: NA
Location:  47.31°N, 122.23°W
Report Text: KSEA 250653Z 01007KT 10SM OVC060 11/09 A2974 RMK AO2 RAE21 SLP076 P0000 T01110089
Loading
Personal Weather Stations






























Interactive Weather Map
Tropical Storm Tracking
New forecast layout! Learn more

10-Day Weather Forecast

Advertisements
Track Severe Weather on mobile